sensor_id;sensor_type;location;lat;lon;timestamp;P1;durP1;ratioP1;P2;durP2;ratioP2
7142;SDS011;3613;48.902;9.204;2022-10-17T00:01:23;17.10;;;11.70;;
7142;SDS011;3613;48.902;9.204;2022-10-17T00:03:48;23.70;;;11.73;;
7142;SDS011;3613;48.902;9.204;2022-10-17T00:06:16;17.43;;;11.53;;
7142;SDS011;3613;48.902;9.204;2022-10-17T00:08:44;18.77;;;10.97;;
7142;SDS011;3613;48.902;9.204;2022-10-17T00:11:16;18.23;;;11.30;;
7142;SDS011;3613;48.902;9.204;2022-10-17T00:13:47;15.30;;;9.80;;
7142;SDS011;3613;48.902;9.204;2022-10-17T00:16:18;17.83;;;11.00;;
7142;SDS011;3613;48.902;9.204;2022-10-17T00:18:53;15.60;;;10.33;;
7142;SDS011;3613;48.902;9.204;2022-10-17T00:21:19;17.33;;;10.33;;
7142;SDS011;3613;48.902;9.204;2022-10-17T00:23:45;17.67;;;10.40;;
7142;SDS011;3613;48.902;9.204;2022-10-17T00:26:13;16.67;;;10.23;;
7142;SDS011;3613;48.902;9.204;2022-10-17T00:28:39;14.57;;;10.37;;
7142;SDS011;3613;48.902;9.204;2022-10-17T00:31:05;17.03;;;10.20;;
7142;SDS011;3613;48.902;9.204;2022-10-17T00:33:32;12.83;;;9.47;;
7142;SDS011;3613;48.902;9.204;2022-10-17T00:38:33;16.73;;;9.63;;
7142;SDS011;3613;48.902;9.204;2022-10-17T00:40:58;16.10;;;10.40;;
7142;SDS011;3613;48.902;9.204;2022-10-17T00:43:24;15.00;;;10.07;;
7142;SDS011;3613;48.902;9.204;2022-10-17T00:45:53;17.87;;;9.57;;
7142;SDS011;3613;48.902;9.204;2022-10-17T00:48:19;28.07;;;11.13;;
7142;SDS011;3613;48.902;9.204;2022-10-17T00:50:47;17.80;;;11.20;;
7142;SDS011;3613;48.902;9.204;2022-10-17T00:53:13;19.13;;;10.60;;
7142;SDS011;3613;48.902;9.204;2022-10-17T00:55:50;16.30;;;10.13;;
7142;SDS011;3613;48.902;9.204;2022-10-17T00:58:20;19.50;;;10.93;;
7142;SDS011;3613;48.902;9.204;2022-10-17T01:00:46;17.10;;;9.73;;
7142;SDS011;3613;48.902;9.204;2022-10-17T01:03:12;17.17;;;9.43;;
7142;SDS011;3613;48.902;9.204;2022-10-17T01:05:41;19.70;;;11.30;;
7142;SDS011;3613;48.902;9.204;2022-10-17T01:08:07;19.20;;;11.00;;
7142;SDS011;3613;48.902;9.204;2022-10-17T01:13:37;16.63;;;10.77;;
7142;SDS011;3613;48.902;9.204;2022-10-17T01:16:14;15.70;;;10.40;;
7142;SDS011;3613;48.902;9.204;2022-10-17T01:22:36;16.10;;;10.27;;
7142;SDS011;3613;48.902;9.204;2022-10-17T01:24:47;21.83;;;11.03;;
7142;SDS011;3613;48.902;9.204;2022-10-17T01:27:28;18.77;;;10.77;;
7142;SDS011;3613;48.902;9.204;2022-10-17T01:32:35;18.90;;;11.47;;
7142;SDS011;3613;48.902;9.204;2022-10-17T01:37:54;17.97;;;10.07;;
7142;SDS011;3613;48.902;9.204;2022-10-17T01:40:28;18.60;;;10.53;;
7142;SDS011;3613;48.902;9.204;2022-10-17T01:43:17;16.83;;;10.33;;
7142;SDS011;3613;48.902;9.204;2022-10-17T01:45:51;19.63;;;11.53;;
7142;SDS011;3613;48.902;9.204;2022-10-17T01:48:23;20.23;;;10.90;;
7142;SDS011;3613;48.902;9.204;2022-10-17T01:50:56;21.63;;;11.07;;
7142;SDS011;3613;48.902;9.204;2022-10-17T01:53:30;17.43;;;10.77;;
7142;SDS011;3613;48.902;9.204;2022-10-17T01:56:02;19.07;;;10.70;;
7142;SDS011;3613;48.902;9.204;2022-10-17T01:58:33;18.50;;;11.03;;
7142;SDS011;3613;48.902;9.204;2022-10-17T02:01:14;18.90;;;10.67;;
7142;SDS011;3613;48.902;9.204;2022-10-17T02:03:43;19.93;;;11.10;;
7142;SDS011;3613;48.902;9.204;2022-10-17T02:06:10;15.97;;;10.63;;
7142;SDS011;3613;48.902;9.204;2022-10-17T02:08:40;16.30;;;9.90;;
7142;SDS011;3613;48.902;9.204;2022-10-17T02:11:17;21.97;;;10.87;;
7142;SDS011;3613;48.902;9.204;2022-10-17T02:22:03;17.13;;;10.13;;
7142;SDS011;3613;48.902;9.204;2022-10-17T02:30:19;20.20;;;9.97;;
7142;SDS011;3613;48.902;9.204;2022-10-17T02:35:29;18.67;;;11.33;;
7142;SDS011;3613;48.902;9.204;2022-10-17T02:37:58;20.03;;;10.83;;
7142;SDS011;3613;48.902;9.204;2022-10-17T02:40:29;20.03;;;11.97;;
7142;SDS011;3613;48.902;9.204;2022-10-17T02:42:55;22.80;;;11.43;;
7142;SDS011;3613;48.902;9.204;2022-10-17T02:45:26;22.37;;;10.90;;
7142;SDS011;3613;48.902;9.204;2022-10-17T02:48:03;19.97;;;9.97;;
7142;SDS011;3613;48.902;9.204;2022-10-17T02:50:37;17.23;;;10.83;;
7142;SDS011;3613;48.902;9.204;2022-10-17T02:53:25;15.57;;;10.57;;
7142;SDS011;3613;48.902;9.204;2022-10-17T02:56:00;16.13;;;10.23;;
7142;SDS011;3613;48.902;9.204;2022-10-17T02:58:30;20.67;;;11.23;;
7142;SDS011;3613;48.902;9.204;2022-10-17T03:00:57;17.20;;;10.90;;
7142;SDS011;3613;48.902;9.204;2022-10-17T03:03:28;19.83;;;10.20;;
7142;SDS011;3613;48.902;9.204;2022-10-17T03:05:55;14.33;;;9.40;;
7142;SDS011;3613;48.902;9.204;2022-10-17T03:08:23;19.87;;;10.27;;
7142;SDS011;3613;48.902;9.204;2022-10-17T03:10:48;17.30;;;10.97;;
7142;SDS011;3613;48.902;9.204;2022-10-17T03:13:16;15.60;;;10.17;;
7142;SDS011;3613;48.902;9.204;2022-10-17T03:15:46;20.30;;;11.03;;
7142;SDS011;3613;48.902;9.204;2022-10-17T03:18:12;18.77;;;11.93;;
7142;SDS011;3613;48.902;9.204;2022-10-17T03:20:40;20.83;;;11.97;;
7142;SDS011;3613;48.902;9.204;2022-10-17T03:23:08;27.10;;;11.97;;
7142;SDS011;3613;48.902;9.204;2022-10-17T03:25:39;19.90;;;11.27;;
7142;SDS011;3613;48.902;9.204;2022-10-17T03:28:05;20.53;;;10.47;;
7142;SDS011;3613;48.902;9.204;2022-10-17T03:30:31;15.63;;;10.33;;
7142;SDS011;3613;48.902;9.204;2022-10-17T03:33:02;19.63;;;11.33;;
7142;SDS011;3613;48.902;9.204;2022-10-17T03:35:27;14.60;;;10.37;;
7142;SDS011;3613;48.902;9.204;2022-10-17T03:37:54;17.30;;;9.43;;
7142;SDS011;3613;48.902;9.204;2022-10-17T03:40:20;17.57;;;9.77;;
7142;SDS011;3613;48.902;9.204;2022-10-17T03:42:48;15.97;;;9.47;;
7142;SDS011;3613;48.902;9.204;2022-10-17T03:45:16;18.73;;;10.07;;
7142;SDS011;3613;48.902;9.204;2022-10-17T03:47:43;18.00;;;10.40;;
7142;SDS011;3613;48.902;9.204;2022-10-17T03:50:09;15.23;;;9.87;;
7142;SDS011;3613;48.902;9.204;2022-10-17T03:52:35;15.50;;;8.93;;
7142;SDS011;3613;48.902;9.204;2022-10-17T03:55:00;17.37;;;9.30;;
7142;SDS011;3613;48.902;9.204;2022-10-17T03:57:26;15.57;;;9.70;;
7142;SDS011;3613;48.902;9.204;2022-10-17T03:59:51;15.57;;;9.30;;
7142;SDS011;3613;48.902;9.204;2022-10-17T04:02:17;17.17;;;8.83;;
7142;SDS011;3613;48.902;9.204;2022-10-17T04:04:43;18.00;;;9.77;;
7142;SDS011;3613;48.902;9.204;2022-10-17T04:07:11;14.30;;;9.20;;
7142;SDS011;3613;48.902;9.204;2022-10-17T04:09:36;15.93;;;9.10;;
7142;SDS011;3613;48.902;9.204;2022-10-17T04:12:02;17.83;;;8.90;;
7142;SDS011;3613;48.902;9.204;2022-10-17T04:14:28;15.27;;;8.80;;
7142;SDS011;3613;48.902;9.204;2022-10-17T04:16:53;16.70;;;9.10;;
7142;SDS011;3613;48.902;9.204;2022-10-17T04:19:19;17.60;;;9.27;;
7142;SDS011;3613;48.902;9.204;2022-10-17T04:21:44;14.53;;;8.13;;
7142;SDS011;3613;48.902;9.204;2022-10-17T04:24:12;17.73;;;9.33;;
7142;SDS011;3613;48.902;9.204;2022-10-17T04:26:38;16.23;;;9.00;;
7142;SDS011;3613;48.902;9.204;2022-10-17T04:29:06;15.90;;;9.77;;
7142;SDS011;3613;48.902;9.204;2022-10-17T04:31:32;14.07;;;9.83;;
7142;SDS011;3613;48.902;9.204;2022-10-17T04:33:58;15.13;;;9.33;;
7142;SDS011;3613;48.902;9.204;2022-10-17T04:36:25;16.70;;;9.10;;
7142;SDS011;3613;48.902;9.204;2022-10-17T04:38:51;15.87;;;9.57;;
7142;SDS011;3613;48.902;9.204;2022-10-17T04:41:17;17.93;;;8.80;;
7142;SDS011;3613;48.902;9.204;2022-10-17T04:43:43;15.67;;;8.60;;
7142;SDS011;3613;48.902;9.204;2022-10-17T04:46:12;16.50;;;9.07;;
7142;SDS011;3613;48.902;9.204;2022-10-17T04:48:39;15.47;;;9.03;;
7142;SDS011;3613;48.902;9.204;2022-10-17T04:51:06;14.83;;;9.30;;
7142;SDS011;3613;48.902;9.204;2022-10-17T04:53:35;13.27;;;9.33;;
7142;SDS011;3613;48.902;9.204;2022-10-17T04:56:19;13.80;;;8.87;;
7142;SDS011;3613;48.902;9.204;2022-10-17T04:58:45;18.37;;;8.47;;
7142;SDS011;3613;48.902;9.204;2022-10-17T05:01:13;11.83;;;8.23;;
7142;SDS011;3613;48.902;9.204;2022-10-17T05:03:41;17.73;;;9.10;;
7142;SDS011;3613;48.902;9.204;2022-10-17T05:06:07;12.33;;;8.27;;
7142;SDS011;3613;48.902;9.204;2022-10-17T05:08:35;14.47;;;7.97;;
7142;SDS011;3613;48.902;9.204;2022-10-17T05:11:01;16.87;;;8.47;;
7142;SDS011;3613;48.902;9.204;2022-10-17T05:13:28;14.20;;;8.67;;
7142;SDS011;3613;48.902;9.204;2022-10-17T05:15:56;14.93;;;8.40;;
7142;SDS011;3613;48.902;9.204;2022-10-17T05:18:23;14.17;;;8.60;;
7142;SDS011;3613;48.902;9.204;2022-10-17T05:20:49;13.13;;;7.93;;
7142;SDS011;3613;48.902;9.204;2022-10-17T05:23:14;15.73;;;8.20;;
7142;SDS011;3613;48.902;9.204;2022-10-17T05:25:40;19.00;;;8.33;;
7142;SDS011;3613;48.902;9.204;2022-10-17T05:28:06;14.77;;;8.47;;
7142;SDS011;3613;48.902;9.204;2022-10-17T05:30:34;18.80;;;9.47;;
7142;SDS011;3613;48.902;9.204;2022-10-17T05:33:00;16.03;;;8.63;;
7142;SDS011;3613;48.902;9.204;2022-10-17T05:35:26;18.43;;;9.07;;
7142;SDS011;3613;48.902;9.204;2022-10-17T05:37:52;15.43;;;9.10;;
7142;SDS011;3613;48.902;9.204;2022-10-17T05:40:18;17.87;;;9.20;;
7142;SDS011;3613;48.902;9.204;2022-10-17T05:42:47;20.10;;;9.53;;
7142;SDS011;3613;48.902;9.204;2022-10-17T05:45:13;16.07;;;8.17;;
7142;SDS011;3613;48.902;9.204;2022-10-17T05:47:41;18.73;;;8.73;;
7142;SDS011;3613;48.902;9.204;2022-10-17T05:50:07;15.40;;;8.73;;
7142;SDS011;3613;48.902;9.204;2022-10-17T05:52:33;13.23;;;8.37;;
7142;SDS011;3613;48.902;9.204;2022-10-17T05:54:59;13.40;;;8.90;;
7142;SDS011;3613;48.902;9.204;2022-10-17T05:57:27;17.57;;;8.70;;
7142;SDS011;3613;48.902;9.204;2022-10-17T05:59:55;17.00;;;8.80;;
7142;SDS011;3613;48.902;9.204;2022-10-17T06:02:21;11.97;;;7.63;;
7142;SDS011;3613;48.902;9.204;2022-10-17T06:04:49;15.63;;;8.47;;
7142;SDS011;3613;48.902;9.204;2022-10-17T06:07:15;15.67;;;8.57;;
7142;SDS011;3613;48.902;9.204;2022-10-17T06:09:43;18.80;;;8.53;;
7142;SDS011;3613;48.902;9.204;2022-10-17T06:12:09;15.27;;;9.07;;
7142;SDS011;3613;48.902;9.204;2022-10-17T06:14:34;19.70;;;9.00;;
7142;SDS011;3613;48.902;9.204;2022-10-17T06:17:04;14.33;;;8.07;;
7142;SDS011;3613;48.902;9.204;2022-10-17T06:19:30;17.57;;;8.80;;
7142;SDS011;3613;48.902;9.204;2022-10-17T06:21:55;16.63;;;8.70;;
7142;SDS011;3613;48.902;9.204;2022-10-17T06:24:21;13.80;;;8.07;;
7142;SDS011;3613;48.902;9.204;2022-10-17T06:26:49;18.67;;;8.43;;
7142;SDS011;3613;48.902;9.204;2022-10-17T06:29:15;16.77;;;7.77;;
7142;SDS011;3613;48.902;9.204;2022-10-17T06:31:40;16.13;;;7.93;;
7142;SDS011;3613;48.902;9.204;2022-10-17T06:34:06;14.20;;;8.30;;
7142;SDS011;3613;48.902;9.204;2022-10-17T06:36:31;15.03;;;8.00;;
7142;SDS011;3613;48.902;9.204;2022-10-17T06:39:01;12.80;;;7.70;;
7142;SDS011;3613;48.902;9.204;2022-10-17T06:41:27;14.13;;;6.93;;
7142;SDS011;3613;48.902;9.204;2022-10-17T06:43:55;12.87;;;7.73;;
7142;SDS011;3613;48.902;9.204;2022-10-17T06:46:21;14.07;;;7.27;;
7142;SDS011;3613;48.902;9.204;2022-10-17T06:48:50;13.97;;;7.13;;
7142;SDS011;3613;48.902;9.204;2022-10-17T06:51:16;12.13;;;7.50;;
7142;SDS011;3613;48.902;9.204;2022-10-17T06:53:42;15.50;;;7.80;;
7142;SDS011;3613;48.902;9.204;2022-10-17T06:56:08;9.27;;;6.87;;
7142;SDS011;3613;48.902;9.204;2022-10-17T06:58:37;13.63;;;7.37;;
7142;SDS011;3613;48.902;9.204;2022-10-17T07:01:05;13.37;;;6.93;;
7142;SDS011;3613;48.902;9.204;2022-10-17T07:03:34;11.60;;;6.73;;
7142;SDS011;3613;48.902;9.204;2022-10-17T07:06:03;11.83;;;6.27;;
7142;SDS011;3613;48.902;9.204;2022-10-17T07:08:29;11.60;;;6.77;;
7142;SDS011;3613;48.902;9.204;2022-10-17T07:10:55;11.50;;;6.70;;
7142;SDS011;3613;48.902;9.204;2022-10-17T07:13:21;11.40;;;5.67;;
7142;SDS011;3613;48.902;9.204;2022-10-17T07:15:49;8.57;;;5.20;;
7142;SDS011;3613;48.902;9.204;2022-10-17T07:18:15;8.63;;;4.90;;
7142;SDS011;3613;48.902;9.204;2022-10-17T07:20:40;7.43;;;3.80;;
7142;SDS011;3613;48.902;9.204;2022-10-17T07:23:06;11.80;;;3.43;;
7142;SDS011;3613;48.902;9.204;2022-10-17T07:25:32;10.13;;;3.93;;
7142;SDS011;3613;48.902;9.204;2022-10-17T07:28:00;8.57;;;3.50;;
7142;SDS011;3613;48.902;9.204;2022-10-17T07:30:28;10.67;;;3.80;;
7142;SDS011;3613;48.902;9.204;2022-10-17T07:32:54;6.67;;;3.67;;
7142;SDS011;3613;48.902;9.204;2022-10-17T07:35:19;9.83;;;3.70;;
7142;SDS011;3613;48.902;9.204;2022-10-17T07:37:45;6.37;;;3.47;;
7142;SDS011;3613;48.902;9.204;2022-10-17T07:40:11;6.83;;;3.73;;
7142;SDS011;3613;48.902;9.204;2022-10-17T07:42:39;10.40;;;4.07;;
7142;SDS011;3613;48.902;9.204;2022-10-17T07:45:05;7.37;;;3.87;;
7142;SDS011;3613;48.902;9.204;2022-10-17T07:47:33;7.40;;;3.90;;
7142;SDS011;3613;48.902;9.204;2022-10-17T07:50:02;8.53;;;3.83;;
7142;SDS011;3613;48.902;9.204;2022-10-17T07:52:29;7.30;;;3.90;;
7142;SDS011;3613;48.902;9.204;2022-10-17T07:54:56;7.67;;;3.67;;
7142;SDS011;3613;48.902;9.204;2022-10-17T07:57:24;6.83;;;3.77;;
7142;SDS011;3613;48.902;9.204;2022-10-17T07:59:50;7.43;;;3.83;;
7142;SDS011;3613;48.902;9.204;2022-10-17T08:02:25;8.47;;;3.80;;
7142;SDS011;3613;48.902;9.204;2022-10-17T08:04:51;7.43;;;4.30;;
7142;SDS011;3613;48.902;9.204;2022-10-17T08:07:18;7.10;;;4.33;;
7142;SDS011;3613;48.902;9.204;2022-10-17T08:09:44;7.77;;;4.07;;
7142;SDS011;3613;48.902;9.204;2022-10-17T08:12:10;5.77;;;3.93;;
7142;SDS011;3613;48.902;9.204;2022-10-17T08:14:38;8.10;;;3.83;;
7142;SDS011;3613;48.902;9.204;2022-10-17T08:17:04;9.83;;;4.50;;
7142;SDS011;3613;48.902;9.204;2022-10-17T08:19:30;6.87;;;4.27;;
7142;SDS011;3613;48.902;9.204;2022-10-17T08:21:56;9.57;;;3.97;;
7142;SDS011;3613;48.902;9.204;2022-10-17T08:24:23;6.87;;;3.80;;
7142;SDS011;3613;48.902;9.204;2022-10-17T08:26:50;7.23;;;3.80;;
7142;SDS011;3613;48.902;9.204;2022-10-17T08:29:20;13.40;;;5.73;;
7142;SDS011;3613;48.902;9.204;2022-10-17T08:31:45;5.57;;;3.37;;
7142;SDS011;3613;48.902;9.204;2022-10-17T08:34:11;10.87;;;4.17;;
7142;SDS011;3613;48.902;9.204;2022-10-17T08:36:39;21.63;;;10.83;;
7142;SDS011;3613;48.902;9.204;2022-10-17T08:39:05;4.77;;;3.20;;
7142;SDS011;3613;48.902;9.204;2022-10-17T08:41:39;3.10;;;2.80;;
7142;SDS011;3613;48.902;9.204;2022-10-17T08:47:03;5.17;;;3.30;;
7142;SDS011;3613;48.902;9.204;2022-10-17T08:49:39;5.93;;;3.53;;
7142;SDS011;3613;48.902;9.204;2022-10-17T08:52:18;4.57;;;2.87;;
7142;SDS011;3613;48.902;9.204;2022-10-17T08:54:46;7.00;;;3.37;;
7142;SDS011;3613;48.902;9.204;2022-10-17T08:57:13;4.97;;;2.60;;
7142;SDS011;3613;48.902;9.204;2022-10-17T08:59:41;6.83;;;2.93;;
7142;SDS011;3613;48.902;9.204;2022-10-17T09:08:08;5.70;;;2.40;;
7142;SDS011;3613;48.902;9.204;2022-10-17T09:13:29;5.73;;;2.60;;
7142;SDS011;3613;48.902;9.204;2022-10-17T09:18:42;8.80;;;2.83;;
7142;SDS011;3613;48.902;9.204;2022-10-17T09:21:24;5.73;;;2.73;;
7142;SDS011;3613;48.902;9.204;2022-10-17T09:24:04;4.47;;;2.80;;
7142;SDS011;3613;48.902;9.204;2022-10-17T09:26:37;3.23;;;2.03;;
7142;SDS011;3613;48.902;9.204;2022-10-17T09:29:04;5.30;;;2.33;;
7142;SDS011;3613;48.902;9.204;2022-10-17T09:32:01;6.70;;;2.20;;
7142;SDS011;3613;48.902;9.204;2022-10-17T09:34:32;4.97;;;2.73;;
7142;SDS011;3613;48.902;9.204;2022-10-17T09:36:58;6.57;;;2.50;;
7142;SDS011;3613;48.902;9.204;2022-10-17T09:39:25;5.70;;;2.13;;
7142;SDS011;3613;48.902;9.204;2022-10-17T09:41:57;6.40;;;2.20;;
7142;SDS011;3613;48.902;9.204;2022-10-17T09:44:32;3.63;;;2.10;;
7142;SDS011;3613;48.902;9.204;2022-10-17T09:49:49;4.00;;;2.40;;
7142;SDS011;3613;48.902;9.204;2022-10-17T09:52:38;4.90;;;2.40;;
7142;SDS011;3613;48.902;9.204;2022-10-17T09:55:16;7.27;;;2.27;;
7142;SDS011;3613;48.902;9.204;2022-10-17T09:57:54;4.33;;;2.37;;
7142;SDS011;3613;48.902;9.204;2022-10-17T10:00:25;5.07;;;2.43;;
7142;SDS011;3613;48.902;9.204;2022-10-17T10:05:37;4.93;;;2.00;;
7142;SDS011;3613;48.902;9.204;2022-10-17T10:08:04;8.53;;;2.90;;
7142;SDS011;3613;48.902;9.204;2022-10-17T10:10:37;2.53;;;2.03;;
7142;SDS011;3613;48.902;9.204;2022-10-17T10:13:25;7.00;;;2.47;;
7142;SDS011;3613;48.902;9.204;2022-10-17T10:15:51;4.87;;;2.50;;
7142;SDS011;3613;48.902;9.204;2022-10-17T10:21:01;4.70;;;2.30;;
7142;SDS011;3613;48.902;9.204;2022-10-17T10:23:35;5.13;;;2.37;;
7142;SDS011;3613;48.902;9.204;2022-10-17T10:26:20;4.97;;;2.57;;
7142;SDS011;3613;48.902;9.204;2022-10-17T10:31:27;11.40;;;2.60;;
7142;SDS011;3613;48.902;9.204;2022-10-17T10:33:55;5.00;;;2.40;;
7142;SDS011;3613;48.902;9.204;2022-10-17T10:36:23;6.30;;;2.20;;
7142;SDS011;3613;48.902;9.204;2022-10-17T10:38:53;5.57;;;2.40;;
7142;SDS011;3613;48.902;9.204;2022-10-17T10:41:24;4.13;;;2.53;;
7142;SDS011;3613;48.902;9.204;2022-10-17T10:43:52;3.70;;;2.20;;
7142;SDS011;3613;48.902;9.204;2022-10-17T10:46:22;6.27;;;2.57;;
7142;SDS011;3613;48.902;9.204;2022-10-17T10:48:56;5.50;;;2.13;;
7142;SDS011;3613;48.902;9.204;2022-10-17T10:51:27;7.80;;;2.90;;
7142;SDS011;3613;48.902;9.204;2022-10-17T10:56:41;6.83;;;3.07;;
7142;SDS011;3613;48.902;9.204;2022-10-17T10:59:21;7.00;;;2.50;;
7142;SDS011;3613;48.902;9.204;2022-10-17T11:07:54;5.27;;;3.27;;
7142;SDS011;3613;48.902;9.204;2022-10-17T11:10:40;3.73;;;2.40;;
7142;SDS011;3613;48.902;9.204;2022-10-17T11:14:00;6.50;;;2.23;;
7142;SDS011;3613;48.902;9.204;2022-10-17T11:19:39;5.83;;;2.53;;
7142;SDS011;3613;48.902;9.204;2022-10-17T11:22:15;6.53;;;2.63;;
7142;SDS011;3613;48.902;9.204;2022-10-17T11:24:47;6.27;;;2.90;;
7142;SDS011;3613;48.902;9.204;2022-10-17T11:27:21;5.07;;;2.07;;
7142;SDS011;3613;48.902;9.204;2022-10-17T11:29:53;3.33;;;2.30;;
7142;SDS011;3613;48.902;9.204;2022-10-17T11:32:23;3.30;;;2.10;;
7142;SDS011;3613;48.902;9.204;2022-10-17T11:35:06;5.83;;;2.30;;
7142;SDS011;3613;48.902;9.204;2022-10-17T11:37:52;5.00;;;2.57;;
7142;SDS011;3613;48.902;9.204;2022-10-17T11:40:30;7.23;;;2.60;;
7142;SDS011;3613;48.902;9.204;2022-10-17T11:42:59;5.97;;;2.70;;
7142;SDS011;3613;48.902;9.204;2022-10-17T11:45:32;2.63;;;2.00;;
7142;SDS011;3613;48.902;9.204;2022-10-17T11:48:04;4.77;;;2.50;;
7142;SDS011;3613;48.902;9.204;2022-10-17T11:50:45;3.73;;;2.80;;
7142;SDS011;3613;48.902;9.204;2022-10-17T11:53:18;5.47;;;3.03;;
7142;SDS011;3613;48.902;9.204;2022-10-17T11:55:51;3.00;;;2.40;;
7142;SDS011;3613;48.902;9.204;2022-10-17T11:58:31;4.80;;;2.92;;
7142;SDS011;3613;48.902;9.204;2022-10-17T12:01:39;5.85;;;2.50;;
7142;SDS011;3613;48.902;9.204;2022-10-17T12:07:07;6.80;;;2.63;;
7142;SDS011;3613;48.902;9.204;2022-10-17T12:12:40;3.80;;;2.38;;
7142;SDS011;3613;48.902;9.204;2022-10-17T12:17:36;5.28;;;2.60;;
7142;SDS011;3613;48.902;9.204;2022-10-17T12:22:50;4.45;;;2.00;;
7142;SDS011;3613;48.902;9.204;2022-10-17T12:25:25;5.68;;;1.92;;
7142;SDS011;3613;48.902;9.204;2022-10-17T12:28:16;6.38;;;1.98;;
7142;SDS011;3613;48.902;9.204;2022-10-17T12:30:59;2.45;;;2.00;;
7142;SDS011;3613;48.902;9.204;2022-10-17T12:38:46;8.05;;;3.60;;
7142;SDS011;3613;48.902;9.204;2022-10-17T12:46:50;3.60;;;2.22;;
7142;SDS011;3613;48.902;9.204;2022-10-17T13:00:26;6.93;;;3.40;;
7142;SDS011;3613;48.902;9.204;2022-10-17T13:03:23;6.40;;;2.40;;
7142;SDS011;3613;48.902;9.204;2022-10-17T13:05:51;3.78;;;2.22;;
7142;SDS011;3613;48.902;9.204;2022-10-17T13:08:32;2.55;;;1.80;;
7142;SDS011;3613;48.902;9.204;2022-10-17T13:11:07;4.18;;;2.15;;
7142;SDS011;3613;48.902;9.204;2022-10-17T13:15:59;4.40;;;2.20;;
7142;SDS011;3613;48.902;9.204;2022-10-17T13:18:26;6.47;;;2.45;;
7142;SDS011;3613;48.902;9.204;2022-10-17T13:23:32;4.45;;;2.47;;
7142;SDS011;3613;48.902;9.204;2022-10-17T13:26:23;3.17;;;2.00;;
7142;SDS011;3613;48.902;9.204;2022-10-17T13:31:38;4.40;;;2.37;;
7142;SDS011;3613;48.902;9.204;2022-10-17T13:34:12;4.13;;;2.20;;
7142;SDS011;3613;48.902;9.204;2022-10-17T13:36:52;4.07;;;2.30;;
7142;SDS011;3613;48.902;9.204;2022-10-17T13:39:25;4.67;;;3.50;;
7142;SDS011;3613;48.902;9.204;2022-10-17T13:42:00;4.47;;;2.50;;
7142;SDS011;3613;48.902;9.204;2022-10-17T13:44:31;3.73;;;2.20;;
7142;SDS011;3613;48.902;9.204;2022-10-17T13:46:58;3.77;;;2.17;;
7142;SDS011;3613;48.902;9.204;2022-10-17T13:49:45;4.80;;;2.40;;
7142;SDS011;3613;48.902;9.204;2022-10-17T13:52:17;6.27;;;2.70;;
7142;SDS011;3613;48.902;9.204;2022-10-17T13:54:46;3.97;;;2.27;;
7142;SDS011;3613;48.902;9.204;2022-10-17T13:59:44;5.37;;;2.50;;
7142;SDS011;3613;48.902;9.204;2022-10-17T14:02:14;5.53;;;2.50;;
7142;SDS011;3613;48.902;9.204;2022-10-17T14:04:41;4.40;;;2.47;;
7142;SDS011;3613;48.902;9.204;2022-10-17T14:07:15;5.50;;;2.57;;
7142;SDS011;3613;48.902;9.204;2022-10-17T14:10:02;5.50;;;2.40;;
7142;SDS011;3613;48.902;9.204;2022-10-17T14:12:41;6.23;;;2.30;;
7142;SDS011;3613;48.902;9.204;2022-10-17T14:15:11;4.93;;;2.03;;
7142;SDS011;3613;48.902;9.204;2022-10-17T14:17:39;4.73;;;2.30;;
7142;SDS011;3613;48.902;9.204;2022-10-17T14:20:05;3.57;;;2.30;;
7142;SDS011;3613;48.902;9.204;2022-10-17T14:22:40;3.50;;;2.20;;
7142;SDS011;3613;48.902;9.204;2022-10-17T14:25:25;3.67;;;2.20;;
7142;SDS011;3613;48.902;9.204;2022-10-17T14:28:00;5.87;;;2.40;;
7142;SDS011;3613;48.902;9.204;2022-10-17T14:30:32;3.83;;;2.50;;
7142;SDS011;3613;48.902;9.204;2022-10-17T14:33:00;6.67;;;2.60;;
7142;SDS011;3613;48.902;9.204;2022-10-17T14:35:30;3.87;;;2.10;;
7142;SDS011;3613;48.902;9.204;2022-10-17T14:38:00;4.40;;;2.37;;
7142;SDS011;3613;48.902;9.204;2022-10-17T14:40:30;4.30;;;2.60;;
7142;SDS011;3613;48.902;9.204;2022-10-17T14:43:02;5.63;;;2.47;;
7142;SDS011;3613;48.902;9.204;2022-10-17T14:45:33;5.33;;;2.40;;
7142;SDS011;3613;48.902;9.204;2022-10-17T14:50:38;6.20;;;2.50;;
7142;SDS011;3613;48.902;9.204;2022-10-17T14:55:36;5.47;;;2.67;;
7142;SDS011;3613;48.902;9.204;2022-10-17T14:58:25;3.17;;;2.13;;
7142;SDS011;3613;48.902;9.204;2022-10-17T15:00:56;6.87;;;2.70;;
7142;SDS011;3613;48.902;9.204;2022-10-17T15:03:23;4.33;;;2.30;;
7142;SDS011;3613;48.902;9.204;2022-10-17T15:05:52;7.13;;;2.57;;
7142;SDS011;3613;48.902;9.204;2022-10-17T15:08:19;5.40;;;2.60;;
7142;SDS011;3613;48.902;9.204;2022-10-17T15:10:47;4.50;;;2.40;;
7142;SDS011;3613;48.902;9.204;2022-10-17T15:13:16;3.63;;;2.03;;
7142;SDS011;3613;48.902;9.204;2022-10-17T15:15:41;4.70;;;2.27;;
7142;SDS011;3613;48.902;9.204;2022-10-17T15:18:15;4.90;;;2.27;;
7142;SDS011;3613;48.902;9.204;2022-10-17T15:20:43;4.00;;;2.40;;
7142;SDS011;3613;48.902;9.204;2022-10-17T15:23:11;4.70;;;2.40;;
7142;SDS011;3613;48.902;9.204;2022-10-17T15:25:36;4.83;;;2.97;;
7142;SDS011;3613;48.902;9.204;2022-10-17T15:28:03;3.90;;;1.97;;
7142;SDS011;3613;48.902;9.204;2022-10-17T15:30:30;5.47;;;2.73;;
7142;SDS011;3613;48.902;9.204;2022-10-17T15:32:58;2.93;;;2.30;;
7142;SDS011;3613;48.902;9.204;2022-10-17T15:35:26;8.60;;;2.50;;
7142;SDS011;3613;48.902;9.204;2022-10-17T15:37:55;4.93;;;2.17;;
7142;SDS011;3613;48.902;9.204;2022-10-17T15:40:24;3.90;;;2.50;;
7142;SDS011;3613;48.902;9.204;2022-10-17T15:42:56;7.00;;;2.70;;
7142;SDS011;3613;48.902;9.204;2022-10-17T15:45:22;5.93;;;2.87;;
7142;SDS011;3613;48.902;9.204;2022-10-17T15:47:51;2.60;;;2.20;;
7142;SDS011;3613;48.902;9.204;2022-10-17T15:50:19;5.00;;;2.53;;
7142;SDS011;3613;48.902;9.204;2022-10-17T15:52:46;5.00;;;2.43;;
7142;SDS011;3613;48.902;9.204;2022-10-17T15:55:15;5.33;;;2.50;;
7142;SDS011;3613;48.902;9.204;2022-10-17T15:57:42;4.87;;;3.07;;
7142;SDS011;3613;48.902;9.204;2022-10-17T16:00:13;6.60;;;2.57;;
7142;SDS011;3613;48.902;9.204;2022-10-17T16:02:44;5.23;;;2.57;;
7142;SDS011;3613;48.902;9.204;2022-10-17T16:05:14;4.27;;;2.60;;
7142;SDS011;3613;48.902;9.204;2022-10-17T16:07:43;6.47;;;2.70;;
7142;SDS011;3613;48.902;9.204;2022-10-17T16:10:11;5.53;;;3.07;;
7142;SDS011;3613;48.902;9.204;2022-10-17T16:12:37;3.87;;;2.77;;
7142;SDS011;3613;48.902;9.204;2022-10-17T16:15:07;5.40;;;2.90;;
7142;SDS011;3613;48.902;9.204;2022-10-17T16:17:39;4.97;;;2.50;;
7142;SDS011;3613;48.902;9.204;2022-10-17T16:20:05;4.33;;;2.70;;
7142;SDS011;3613;48.902;9.204;2022-10-17T16:22:32;6.50;;;3.83;;
7142;SDS011;3613;48.902;9.204;2022-10-17T16:25:00;5.73;;;2.70;;
7142;SDS011;3613;48.902;9.204;2022-10-17T16:27:35;5.50;;;3.47;;
7142;SDS011;3613;48.902;9.204;2022-10-17T16:30:02;4.77;;;3.13;;
7142;SDS011;3613;48.902;9.204;2022-10-17T16:32:29;5.07;;;3.00;;
7142;SDS011;3613;48.902;9.204;2022-10-17T16:34:54;6.13;;;2.80;;
7142;SDS011;3613;48.902;9.204;2022-10-17T16:37:20;5.50;;;3.27;;
7142;SDS011;3613;48.902;9.204;2022-10-17T16:39:48;10.27;;;3.43;;
7142;SDS011;3613;48.902;9.204;2022-10-17T16:42:16;4.53;;;3.13;;
7142;SDS011;3613;48.902;9.204;2022-10-17T16:44:44;7.63;;;4.07;;
7142;SDS011;3613;48.902;9.204;2022-10-17T16:47:13;4.60;;;3.90;;
7142;SDS011;3613;48.902;9.204;2022-10-17T16:49:42;6.47;;;3.87;;
7142;SDS011;3613;48.902;9.204;2022-10-17T16:52:10;4.87;;;3.47;;
7142;SDS011;3613;48.902;9.204;2022-10-17T16:54:41;7.57;;;3.43;;
7142;SDS011;3613;48.902;9.204;2022-10-17T16:57:06;7.13;;;3.60;;
7142;SDS011;3613;48.902;9.204;2022-10-17T16:59:35;5.03;;;3.17;;
7142;SDS011;3613;48.902;9.204;2022-10-17T17:02:00;8.27;;;3.77;;
7142;SDS011;3613;48.902;9.204;2022-10-17T17:04:26;5.73;;;3.53;;
7142;SDS011;3613;48.902;9.204;2022-10-17T17:06:51;6.47;;;3.73;;
7142;SDS011;3613;48.902;9.204;2022-10-17T17:09:19;11.97;;;7.07;;
7142;SDS011;3613;48.902;9.204;2022-10-17T17:11:45;8.20;;;5.10;;
7142;SDS011;3613;48.902;9.204;2022-10-17T17:14:13;10.97;;;3.97;;
7142;SDS011;3613;48.902;9.204;2022-10-17T17:16:41;8.50;;;4.60;;
7142;SDS011;3613;48.902;9.204;2022-10-17T17:19:09;5.67;;;3.70;;